This is the latest recevied weather packets stored in our database for station/object KO5MO-11. If no packets are shown the sender has not sent any weather packets the latest 10 day(s).
| Time | Temp. | Humidity | Pressure | Rain* | Wind** | Luminosity | Snow |
|---|---|---|---|---|---|---|---|
| 1777608655 | 25° C | 38% | 1004.6 hPa | - | - | 778 W/m² | - |
| 1777608055 | 23.89° C | 36% | 1004.3 hPa | - | - | 751 W/m² | - |
| 1777607455 | 23.89° C | 36% | 1004 hPa | - | - | 753 W/m² | - |
| 1777606856 | 25.56° C | 34% | 1003.8 hPa | - | - | 787 W/m² | - |
| 1777606255 | 25° C | 39% | 1003.6 hPa | - | - | 777 W/m² | - |
| 1777605655 | 23.89° C | 36% | 1003.4 hPa | - | - | 750 W/m² | - |
| 1777605055 | 23.89° C | 36% | 1003.3 hPa | - | - | 753 W/m² | - |
| 1777604455 | 25° C | 35% | 1003.3 hPa | - | - | 777 W/m² | - |
| 1777603855 | 26.11° C | 36% | 1003 hPa | - | - | 792 W/m² | - |
| 1777603255 | 23.33° C | 38% | 1003 hPa | - | - | 748 W/m² | - |
| 1777602655 | 23.89° C | 36% | 1003 hPa | - | - | 752 W/m² | - |
| 1777602055 | 24.44° C | 36% | 1002.9 hPa | - | - | 762 W/m² | - |
| 1777601455 | 26.67° C | 34% | 1002.8 hPa | - | - | 807 W/m² | - |
| 1777600855 | 25° C | 40% | 1002.7 hPa | - | - | 774 W/m² | - |
| 1777600255 | 23.89° C | 37% | 1002.6 hPa | - | - | 750 W/m² | - |
| 1777599656 | 23.89° C | 36% | 1002.5 hPa | - | - | 759 W/m² | - |
| 1777599055 | 25° C | 35% | 1002.5 hPa | - | - | 774 W/m² | - |
| 1777598455 | 26.11° C | 36% | 1002.4 hPa | - | - | 794 W/m² | - |
| 1777597855 | 23.89° C | 37% | 1002.6 hPa | - | - | 751 W/m² | - |
| 1777597255 | 23.89° C | 37% | 1002.6 hPa | - | - | 755 W/m² | - |
| 1777596655 | 24.44° C | 36% | 1002.7 hPa | - | - | 764 W/m² | - |
| 1777596055 | 26.67° C | 35% | 1002.7 hPa | - | - | 808 W/m² | - |
| 1777595455 | 24.44° C | 41% | 1002.7 hPa | - | - | 769 W/m² | - |
| 1777594855 | 23.89° C | 37% | 1002.7 hPa | - | - | 754 W/m² | - |
| 1777594255 | 24.44° C | 36% | 1002.5 hPa | - | - | 761 W/m² | - |
* Rain since midnight (hover to see other rain measurements)
** Current wind speed in m/s (hover to see current wind gust speed)